Time;durP1;ratioP1;P1;durP2;ratioP2;P2;SDS_P1;SDS_P2;PMS_P1;PMS_P2;Temp;Humidity;BMP_temperature;BMP_pressure;BME280_temperature;BME280_humidity;BME280_pressure;Samples;Min_cycle;Max_cycle;Signal;HPM_P1;HPM_P2
2021/01/25 00:00:51;;;;;;;1.75;1.23;;;;;;;27.44;25.63;94823.50;5055167;28;20498;-38
2021/01/25 00:03:16;;;;;;;1.70;1.27;;;;;;;27.44;25.95;94815.59;5061810;28;20036;-38
2021/01/25 00:05:42;;;;;;;2.15;1.15;;;;;;;27.45;26.01;94806.72;5055523;28;20052;-39
2021/01/25 00:08:07;;;;;;;2.28;1.42;;;;;;;27.43;26.08;94801.63;5056892;28;20071;-43
2021/01/25 00:10:33;;;;;;;1.80;1.38;;;;;;;27.43;25.81;94801.63;5056141;28;20044;-43
2021/01/25 00:12:59;;;;;;;1.75;1.20;;;;;;;27.44;25.54;94802.44;5059736;28;20494;-41
2021/01/25 00:15:24;;;;;;;1.88;1.17;;;;;;;27.44;25.60;94797.19;5052820;28;20056;-40
2021/01/25 00:17:50;;;;;;;1.52;1.20;;;;;;;27.43;25.97;94792.91;5064268;28;20041;-37
2021/01/25 00:20:17;;;;;;;2.70;1.33;;;;;;;27.44;26.10;94791.94;5049935;28;20048;-40
2021/01/25 00:22:44;;;;;;;1.58;1.30;;;;;;;27.44;25.79;94794.56;5052204;28;20036;-42
2021/01/25 00:25:09;;;;;;;2.55;1.20;;;;;;;27.43;25.61;94792.91;5049522;28;20045;-44
2021/01/25 00:27:36;;;;;;;5.03;1.40;;;;;;;27.44;25.96;94799.81;5040847;28;20049;-39
2021/01/25 00:30:01;;;;;;;3.33;1.38;;;;;;;27.44;25.71;94791.94;5044275;28;20043;-41
2021/01/25 00:32:26;;;;;;;1.60;1.40;;;;;;;27.44;26.10;94795.41;5049715;28;20740;-39
2021/01/25 00:34:52;;;;;;;1.95;1.35;;;;;;;27.43;25.58;94796.38;5059477;28;20048;-39
2021/01/25 00:37:18;;;;;;;1.45;1.20;;;;;;;27.44;25.52;94791.94;5051920;28;20417;-40
2021/01/25 00:39:43;;;;;;;1.20;1.10;;;;;;;27.43;26.13;94790.28;5050722;28;20044;-41
2021/01/25 00:42:09;;;;;;;2.08;1.20;;;;;;;27.42;25.68;94791.25;5058055;28;20844;-38
2021/01/25 00:44:35;;;;;;;1.13;1.00;;;;;;;27.40;25.89;94788.75;5056629;28;20036;-40
2021/01/25 00:47:00;;;;;;;1.55;1.00;;;;;;;27.41;26.11;94797.50;5057075;28;20086;-37
2021/01/25 00:49:26;;;;;;;1.30;1.20;;;;;;;27.40;26.04;94791.38;5054984;28;20140;-40
2021/01/25 00:51:51;;;;;;;1.52;1.35;;;;;;;27.38;25.52;94780.16;5054293;28;20753;-42
2021/01/25 00:54:17;;;;;;;1.40;1.10;;;;;;;27.40;25.97;94786.13;5055213;28;20097;-36
2021/01/25 00:56:42;;;;;;;1.88;1.10;;;;;;;27.38;25.48;94786.25;5056315;28;20101;-40
2021/01/25 00:59:08;;;;;;;1.73;1.20;;;;;;;27.37;25.71;94775.88;5053519;28;20040;-40
2021/01/25 01:01:34;;;;;;;1.70;1.20;;;;;;;27.37;25.64;94771.47;5046054;28;20048;-42
2021/01/25 01:04:00;;;;;;;1.30;1.00;;;;;;;27.37;25.93;94771.47;5054110;28;20190;-41
2021/01/25 01:06:25;;;;;;;1.08;0.90;;;;;;;27.37;25.58;94765.34;5056821;28;20041;-37
2021/01/25 01:08:51;;;;;;;1.02;0.90;;;;;;;27.37;25.51;94768.00;5070696;28;20048;-41
2021/01/25 01:11:16;;;;;;;1.10;0.95;;;;;;;27.37;25.67;94762.72;5064584;28;20040;-42
2021/01/25 01:13:41;;;;;;;1.20;1.00;;;;;;;27.35;26.08;94765.50;5050298;28;20397;-40
2021/01/25 01:16:07;;;;;;;1.15;1.05;;;;;;;27.33;25.83;94764.81;5048079;28;20975;-39
2021/01/25 01:18:35;;;;;;;3.45;0.85;;;;;;;27.33;25.80;94764.81;5050177;28;20045;-39
2021/01/25 01:21:02;;;;;;;1.85;1.20;;;;;;;27.34;26.17;94765.66;5049181;28;20152;-39
2021/01/25 01:23:28;;;;;;;1.52;1.02;;;;;;;27.32;25.53;94765.78;5050899;28;20155;-37
2021/01/25 01:25:54;;;;;;;1.10;1.00;;;;;;;27.32;26.06;94765.78;5063542;28;20043;-37
2021/01/25 01:28:20;;;;;;;1.38;1.13;;;;;;;27.35;26.06;94764.69;5051704;28;20044;-38
2021/01/25 01:30:46;;;;;;;1.88;1.13;;;;;;;27.35;25.68;94770.75;5049394;28;20460;-39
2021/01/25 01:33:12;;;;;;;1.25;1.08;;;;;;;27.34;25.80;94766.47;5051635;28;20044;-38
2021/01/25 01:35:38;;;;;;;1.05;0.95;;;;;;;27.33;25.56;94764.81;5048888;28;20508;-37
2021/01/25 01:38:04;;;;;;;1.42;1.10;;;;;;;27.35;25.72;94765.50;5049691;28;20035;-42
2021/01/25 01:40:29;;;;;;;2.88;1.02;;;;;;;27.36;26.07;94759.28;5046165;28;20113;-39
2021/01/25 01:42:55;;;;;;;1.75;1.13;;;;;;;27.35;26.05;94752.34;5058676;28;20700;-39
2021/01/25 01:45:21;;;;;;;2.30;1.20;;;;;;;27.35;25.70;94752.34;5048998;28;20048;-40
2021/01/25 01:47:46;;;;;;;2.70;0.98;;;;;;;27.34;26.05;94758.59;5056006;28;20477;-39
2021/01/25 01:50:13;;;;;;;1.40;1.10;;;;;;;27.34;25.98;94755.94;5050128;28;20047;-42
2021/01/25 01:52:39;;;;;;;1.48;1.13;;;;;;;27.34;26.06;94761.22;5042679;28;20506;-43
2021/01/25 01:55:05;;;;;;;5.15;1.10;;;;;;;27.33;25.53;94764.81;5062371;28;20052;-38
2021/01/25 01:57:32;;;;;;;1.38;1.02;;;;;;;27.34;26.17;94765.66;5054675;28;20044;-41
2021/01/25 01:59:58;;;;;;;2.22;1.10;;;;;;;27.34;26.04;94765.66;5059796;28;20049;-40
2021/01/25 02:02:23;;;;;;;2.28;1.35;;;;;;;27.34;25.90;94763.03;5052377;28;20036;-41
2021/01/25 02:04:48;;;;;;;1.73;0.85;;;;;;;27.30;25.65;94757.19;5054513;28;20045;-39
2021/01/25 02:07:14;;;;;;;1.38;0.95;;;;;;;27.33;25.50;94756.94;5048672;28;20040;-40
2021/01/25 02:09:40;;;;;;;1.10;1.00;;;;;;;27.31;25.73;94756.22;5051014;28;21330;-40
2021/01/25 02:12:06;;;;;;;1.17;0.85;;;;;;;27.30;25.57;94754.56;5054621;28;20149;-42
2021/01/25 02:14:32;;;;;;;1.17;1.02;;;;;;;27.31;25.74;94743.06;5045162;28;20043;-40
2021/01/25 02:16:58;;;;;;;2.35;0.95;;;;;;;27.31;25.77;94750.97;5047897;28;20048;-41
2021/01/25 02:19:27;;;;;;;2.17;1.50;;;;;;;27.30;25.41;94744.06;5054898;28;20567;-39
2021/01/25 02:22:05;;;;;;;1.52;1.10;;;;;;;27.31;26.07;94745.69;5034941;28;20041;-41
2021/01/25 02:24:34;;;;;;;1.20;1.10;;;;;;;27.32;25.84;94742.13;5055480;28;20082;-38
2021/01/25 02:27:10;;;;;;;1.50;0.95;;;;;;;27.30;25.54;94738.78;5047071;28;20037;-43
2021/01/25 02:29:36;;;;;;;1.40;0.98;;;;;;;27.29;25.87;94739.78;5046664;28;20017;-42
2021/01/25 02:32:02;;;;;;;1.80;1.25;;;;;;;27.29;25.90;94737.13;5052085;28;20056;-40
2021/01/25 02:34:29;;;;;;;1.35;1.05;;;;;;;27.27;25.67;94744.34;5049126;28;20071;-38
2021/01/25 02:36:55;;;;;;;2.50;1.00;;;;;;;27.30;25.63;94737.97;5051771;28;20548;-39
2021/01/25 02:39:20;;;;;;;1.17;0.88;;;;;;;27.30;26.00;94738.78;5055004;28;20048;-39
2021/01/25 02:41:45;;;;;;;1.50;1.30;;;;;;;27.29;25.50;94739.78;5044980;28;20044;-41
2021/01/25 02:44:11;;;;;;;1.45;0.98;;;;;;;27.28;25.49;94735.50;5055684;28;20528;-36
2021/01/25 02:46:36;;;;;;;1.05;0.85;;;;;;;27.29;26.00;94725.78;5048521;28;20047;-42
2021/01/25 02:49:02;;;;;;;1.40;1.10;;;;;;;27.28;25.80;94730.22;5056344;28;20450;-43
2021/01/25 02:51:27;;;;;;;1.08;0.90;;;;;;;27.28;26.11;94738.13;5067407;28;20086;-44
2021/01/25 02:53:53;;;;;;;1.30;1.08;;;;;;;27.28;25.40;94738.13;5055342;28;20090;-42
2021/01/25 02:56:18;;;;;;;1.25;1.02;;;;;;;27.26;25.45;94747.94;5055715;28;20588;-41
2021/01/25 02:58:45;;;;;;;1.60;1.00;;;;;;;27.25;25.86;94747.13;5056773;28;20067;-44
2021/01/25 03:01:10;;;;;;;2.35;1.20;;;;;;;27.27;25.62;94754.88;5049912;28;20047;-42
2021/01/25 03:03:36;;;;;;;0.90;0.90;;;;;;;27.27;25.91;94754.88;5077155;28;20450;-39
2021/01/25 03:06:01;;;;;;;1.40;1.00;;;;;;;27.27;25.90;94755.69;5057200;28;20067;-37
2021/01/25 03:08:27;;;;;;;1.10;0.88;;;;;;;27.27;25.94;94755.69;5058273;28;20037;-36
2021/01/25 03:10:53;;;;;;;1.58;1.00;;;;;;;27.25;26.11;94757.63;5059378;28;20056;-41
2021/01/25 03:13:24;;;;;;;0.82;0.82;;;;;;;27.26;25.43;94758.44;5052802;28;20070;-40
2021/01/25 03:15:49;;;;;;;1.70;0.90;;;;;;;27.26;25.77;94764.56;5056445;28;20036;-43
2021/01/25 03:18:15;;;;;;;1.35;1.00;;;;;;;27.26;25.40;94754.03;5052607;28;20547;-42
2021/01/25 03:20:41;;;;;;;1.42;1.02;;;;;;;27.26;25.99;94759.28;5059804;28;20032;-42
2021/01/25 03:23:06;;;;;;;1.73;1.10;;;;;;;27.28;25.90;94756.53;5053317;28;20040;-38
2021/01/25 03:25:31;;;;;;;1.60;1.10;;;;;;;27.26;25.87;94759.28;5062397;28;20032;-37
2021/01/25 03:27:57;;;;;;;0.70;0.70;;;;;;;27.26;25.80;94755.81;5059909;28;20040;-42
2021/01/25 03:30:23;;;;;;;1.35;1.10;;;;;;;27.24;25.85;94752.50;5055932;28;20529;-40
2021/01/25 03:32:48;;;;;;;1.02;0.80;;;;;;;27.24;25.55;94755.16;5054264;28;20067;-38
2021/01/25 03:35:14;;;;;;;1.67;1.13;;;;;;;27.25;25.47;94751.53;5050259;28;20090;-38
2021/01/25 03:37:40;;;;;;;1.27;0.95;;;;;;;27.22;25.57;94757.91;5056219;28;20024;-41
2021/01/25 03:40:06;;;;;;;1.10;1.00;;;;;;;27.26;25.76;94758.44;5049251;28;20110;-39
2021/01/25 03:42:32;;;;;;;1.10;1.00;;;;;;;27.26;25.50;94754.03;5056671;28;20036;-42
2021/01/25 03:44:58;;;;;;;3.60;1.27;;;;;;;27.26;25.67;94755.81;5051716;28;20029;-42
2021/01/25 03:47:23;;;;;;;2.28;1.10;;;;;;;27.26;25.46;94759.28;5054011;28;20048;-44
2021/01/25 03:49:48;;;;;;;3.55;1.02;;;;;;;27.25;25.69;94762.06;5057827;28;20098;-38
2021/01/25 03:52:14;;;;;;;1.67;1.00;;;;;;;27.25;25.92;94756.78;5048924;28;20394;-39
2021/01/25 03:54:39;;;;;;;1.65;0.90;;;;;;;27.25;25.60;94752.38;5044948;28;20080;-42
2021/01/25 03:57:05;;;;;;;0.95;0.90;;;;;;;27.27;25.39;94755.69;5054939;28;20036;-37
2021/01/25 03:59:30;;;;;;;1.45;1.30;;;;;;;27.27;25.89;94766.19;5057006;28;20529;-38
2021/01/25 04:01:59;;;;;;;0.85;0.75;;;;;;;27.27;25.61;94760.13;5051629;28;20055;-40
2021/01/25 04:04:25;;;;;;;0.70;0.70;;;;;;;27.26;25.57;94763.72;5047673;28;20024;-40
2021/01/25 04:06:51;;;;;;;0.80;0.70;;;;;;;27.27;25.96;94768.03;5061059;28;20043;-37
2021/01/25 04:09:17;;;;;;;0.93;0.80;;;;;;;27.26;25.63;94768.97;5056636;28;20071;-39
2021/01/25 04:11:43;;;;;;;1.20;0.88;;;;;;;27.18;25.88;94758.31;5059188;28;20048;-36
2021/01/25 04:14:09;;;;;;;0.93;0.80;;;;;;;27.25;25.70;94768.16;5069536;28;20025;-40
2021/01/25 04:16:36;;;;;;;0.95;0.90;;;;;;;27.25;25.56;94767.31;5052497;28;20042;-40
2021/01/25 04:19:03;;;;;;;1.08;0.82;;;;;;;27.25;25.64;94767.31;5058019;28;20623;-44
2021/01/25 04:21:29;;;;;;;0.88;0.82;;;;;;;27.26;25.88;94768.97;5044108;28;20054;-39
2021/01/25 04:23:54;;;;;;;1.38;0.80;;;;;;;27.26;25.92;94763.72;5062269;28;20057;-41
2021/01/25 04:26:20;;;;;;;1.00;0.90;;;;;;;27.24;25.82;94768.28;5061083;28;20236;-38
2021/01/25 04:28:45;;;;;;;1.10;0.70;;;;;;;27.25;25.78;94764.69;5057155;28;20036;-40
2021/01/25 04:31:11;;;;;;;1.52;1.10;;;;;;;27.25;25.58;94768.16;5056489;28;20059;-38
2021/01/25 04:33:38;;;;;;;0.80;0.80;;;;;;;27.24;25.90;94765.66;5053765;28;20040;-40
2021/01/25 04:36:06;;;;;;;1.67;1.00;;;;;;;27.25;25.84;94762.06;5058499;28;20048;-39
2021/01/25 04:38:31;;;;;;;0.75;0.70;;;;;;;27.24;25.67;94763.03;5058514;28;20526;-40
2021/01/25 04:40:57;;;;;;;1.70;0.90;;;;;;;27.25;25.42;94767.31;5046322;28;20040;-39
2021/01/25 04:43:23;;;;;;;1.17;1.08;;;;;;;27.22;25.78;94767.59;5050787;28;20037;-39
2021/01/25 04:45:49;;;;;;;0.70;0.70;;;;;;;27.22;25.44;94772.84;5047311;28;20090;-41
2021/01/25 04:48:15;;;;;;;1.65;0.90;;;;;;;27.23;25.49;94764.00;5059081;28;20032;-43
2021/01/25 04:50:40;;;;;;;1.33;0.90;;;;;;;27.23;25.63;94764.00;5056612;28;20645;-42
2021/01/25 04:53:05;;;;;;;0.70;0.70;;;;;;;27.22;25.90;94764.97;5057034;28;20094;-40
2021/01/25 04:55:31;;;;;;;1.00;0.90;;;;;;;27.21;25.65;94760.69;5049967;28;20045;-37
2021/01/25 04:57:56;;;;;;;1.33;0.90;;;;;;;27.22;25.75;94770.22;5053012;28;20527;-42
2021/01/25 05:00:22;;;;;;;1.45;0.90;;;;;;;27.22;25.94;94772.84;5048769;28;20678;-39
2021/01/25 05:02:48;;;;;;;1.98;0.77;;;;;;;27.20;25.55;94770.38;5049269;28;20041;-38
2021/01/25 05:05:13;;;;;;;1.38;1.02;;;;;;;27.20;25.98;94777.44;5055308;28;20406;-42
2021/01/25 05:07:39;;;;;;;1.08;0.70;;;;;;;27.21;26.03;94773.81;5056576;28;20044;-41
2021/01/25 05:10:07;;;;;;;1.02;0.80;;;;;;;27.21;25.80;94774.66;5050145;28;20048;-42
2021/01/25 05:12:46;;;;;;;0.75;0.70;;;;;;;27.22;25.56;94780.72;5055852;28;20057;-43
2021/01/25 05:15:23;;;;;;;1.65;0.88;;;;;;;27.21;25.43;94779.06;5048414;28;20024;-41
2021/01/25 05:17:49;;;;;;;1.35;0.70;;;;;;;27.20;25.48;94774.78;5053052;28;20032;-41
2021/01/25 05:20:14;;;;;;;1.00;0.85;;;;;;;27.19;25.87;94773.16;5052589;28;20210;-42
2021/01/25 05:22:40;;;;;;;0.55;0.55;;;;;;;27.18;25.98;94781.97;5055045;28;20041;-42
2021/01/25 05:25:08;;;;;;;1.02;0.77;;;;;;;27.18;25.89;94780.19;5052586;28;20482;-41
2021/01/25 05:27:34;;;;;;;0.70;0.70;;;;;;;27.18;25.66;94787.25;5058102;28;20036;-39
2021/01/25 05:30:14;;;;;;;1.02;0.80;;;;;;;27.19;25.91;94788.91;5055523;28;20493;-39
2021/01/25 05:32:53;;;;;;;0.80;0.80;;;;;;;27.18;26.01;94795.13;5033052;28;20113;-41
2021/01/25 05:35:22;;;;;;;3.33;0.75;;;;;;;27.18;25.70;94795.13;5039311;28;20127;-41
2021/01/25 05:37:55;;;;;;;1.00;0.60;;;;;;;27.17;25.92;94793.47;5031062;28;20055;-42
2021/01/25 05:40:21;;;;;;;1.02;0.60;;;;;;;27.16;25.90;94790.03;5037597;28;20033;-39
2021/01/25 05:42:48;;;;;;;1.70;0.70;;;;;;;27.15;25.58;94793.59;5037024;28;20048;-38
2021/01/25 05:45:13;;;;;;;13.65;0.95;;;;;;;27.15;25.81;94798.06;5027433;28;20120;-38
2021/01/25 05:47:43;;;;;;;1.25;0.88;;;;;;;27.15;25.69;94792.78;5057988;28;20572;-39
2021/01/25 05:50:10;;;;;;;1.13;0.80;;;;;;;27.16;25.58;94797.06;5059561;28;20237;-41
2021/01/25 05:52:42;;;;;;;1.00;0.80;;;;;;;27.16;25.71;94794.44;5061000;28;20105;-38
2021/01/25 05:55:08;;;;;;;1.00;0.70;;;;;;;27.16;25.70;94794.44;5045827;28;20131;-39
2021/01/25 05:57:33;;;;;;;1.15;0.82;;;;;;;27.15;26.08;94795.41;5056692;28;20037;-40
2021/01/25 05:59:58;;;;;;;1.20;0.80;;;;;;;27.15;25.74;94798.06;5056139;28;20059;-39
2021/01/25 06:02:24;;;;;;;1.10;0.70;;;;;;;27.15;25.83;94798.06;5050512;28;20106;-44
2021/01/25 06:04:49;;;;;;;0.70;0.70;;;;;;;27.15;25.93;94803.31;5041454;28;20051;-39
2021/01/25 06:07:15;;;;;;;1.27;1.00;;;;;;;27.16;26.15;94810.22;5055131;28;20032;-40
2021/01/25 06:09:53;;;;;;;0.52;0.52;;;;;;;27.15;25.78;94806.75;5046454;28;20044;-43
2021/01/25 06:12:39;;;;;;;1.10;0.70;;;;;;;27.16;25.94;94807.59;5072732;28;20040;-39
2021/01/25 06:15:06;;;;;;;0.80;0.70;;;;;;;27.16;25.78;94804.97;5070431;28;20684;-42
2021/01/25 06:17:34;;;;;;;0.70;0.60;;;;;;;27.17;25.68;94819.75;5040426;28;20059;-39
2021/01/25 06:20:05;;;;;;;0.77;0.57;;;;;;;27.17;25.75;94817.13;5063762;28;20123;-39
2021/01/25 06:22:30;;;;;;;0.95;0.55;;;;;;;27.17;26.06;94822.41;5059628;28;20074;-43
2021/01/25 06:24:57;;;;;;;1.38;0.90;;;;;;;27.18;26.04;94824.88;5062245;28;20745;-38
2021/01/25 06:27:23;;;;;;;1.00;0.60;;;;;;;27.17;25.59;94825.03;5060451;28;20120;-42
2021/01/25 06:29:50;;;;;;;0.82;0.63;;;;;;;27.19;25.99;94825.72;5054535;28;20040;-41
2021/01/25 06:32:16;;;;;;;0.80;0.50;;;;;;;27.19;26.09;94831.00;5052144;28;20048;-41
2021/01/25 06:34:41;;;;;;;1.58;0.80;;;;;;;27.18;25.87;94830.16;5055920;28;20696;-43
2021/01/25 06:37:08;;;;;;;0.77;0.63;;;;;;;27.19;25.81;94837.06;5066667;28;20037;-41
2021/01/25 06:39:34;;;;;;;0.70;0.50;;;;;;;27.20;25.49;94844.00;5048009;28;20029;-37
2021/01/25 06:42:01;;;;;;;2.15;0.88;;;;;;;27.20;26.05;94837.91;5062166;28;20031;-41
2021/01/25 06:44:26;;;;;;;0.65;0.57;;;;;;;27.21;25.64;94845.66;5053322;28;20029;-41
2021/01/25 06:46:55;;;;;;;0.90;0.70;;;;;;;27.21;25.56;94850.06;5053666;28;20044;-37
2021/01/25 06:49:20;;;;;;;0.65;0.60;;;;;;;27.21;25.78;94847.44;5060914;28;20032;-36
2021/01/25 06:51:46;;;;;;;0.55;0.50;;;;;;;27.21;26.10;94847.44;5052203;28;20798;-40
2021/01/25 06:54:11;;;;;;;1.10;0.80;;;;;;;27.22;25.94;94846.47;5041192;28;20570;-42
2021/01/25 06:56:44;;;;;;;0.75;0.75;;;;;;;27.22;25.67;94854.34;5050223;28;20048;-42
2021/01/25 06:59:10;;;;;;;0.68;0.47;;;;;;;27.21;25.73;94856.19;5054135;28;20032;-43
2021/01/25 07:01:35;;;;;;;0.90;0.80;;;;;;;27.23;25.95;94869.19;5051961;28;20423;-40
2021/01/25 07:04:01;;;;;;;3.45;0.75;;;;;;;27.24;25.72;94862.97;5063956;28;20031;-40
2021/01/25 07:06:39;;;;;;;9.20;1.80;;;;;;;27.22;25.22;94867.50;5054181;28;20561;-42
2021/01/25 07:09:05;;;;;;;4.75;1.20;;;;;;;27.17;25.02;94864.47;5055094;28;20037;-41
2021/01/25 07:11:31;;;;;;;1.13;0.85;;;;;;;27.17;26.02;94874.97;5060100;28;20508;-40
2021/01/25 07:13:57;;;;;;;3.00;0.93;;;;;;;27.18;25.59;94876.63;5050696;28;20051;-37
2021/01/25 07:16:26;;;;;;;1.35;0.93;;;;;;;27.19;25.63;94883.59;5050791;28;20040;-40
2021/01/25 07:18:54;;;;;;;1.42;0.90;;;;;;;27.20;25.66;94890.50;5051395;28;20040;-39
2021/01/25 07:21:20;;;;;;;0.93;0.70;;;;;;;27.16;25.94;94882.06;5052315;28;20020;-43
2021/01/25 07:23:46;;;;;;;1.33;0.80;;;;;;;27.22;25.68;94893.81;5047967;28;20044;-43
2021/01/25 07:26:13;;;;;;;1.02;0.80;;;;;;;27.21;25.99;94893.00;5056651;28;20037;-39
2021/01/25 07:28:39;;;;;;;1.67;0.65;;;;;;;27.21;25.84;94895.63;5057879;28;20037;-40
2021/01/25 07:31:04;;;;;;;2.38;0.52;;;;;;;27.21;25.56;94898.25;5052125;28;20066;-44
2021/01/25 07:33:30;;;;;;;1.45;1.00;;;;;;;27.23;25.65;94906.00;5058616;28;20581;-41
2021/01/25 07:35:58;;;;;;;1.95;0.80;;;;;;;27.23;25.71;94908.63;5055883;28;20048;-41
2021/01/25 07:38:24;;;;;;;1.48;0.75;;;;;;;27.23;26.06;94903.38;5058983;28;20134;-40
2021/01/25 07:40:50;;;;;;;1.88;0.90;;;;;;;27.23;26.10;94906.00;5048515;28;20729;-39
2021/01/25 07:43:16;;;;;;;2.88;0.98;;;;;;;27.24;26.07;94923.44;5056644;28;20525;-42
2021/01/25 07:45:42;;;;;;;2.15;0.73;;;;;;;27.24;25.60;94916.38;5056532;28;20484;-41
2021/01/25 07:48:11;;;;;;;0.60;0.60;;;;;;;27.24;26.01;94913.72;5051923;28;20036;-41
2021/01/25 07:50:37;;;;;;;1.10;0.90;;;;;;;27.23;25.93;94919.16;5053241;28;20025;-38
2021/01/25 07:53:05;;;;;;;11.73;1.10;;;;;;;27.24;26.27;94920.81;5055463;28;20040;-38
2021/01/25 07:55:30;;;;;;;1.55;0.85;;;;;;;27.24;25.69;94928.69;5063276;28;20059;-39
2021/01/25 07:58:08;;;;;;;6.80;0.93;;;;;;;27.24;25.52;94933.97;5055161;28;20044;-41
2021/01/25 08:00:36;;;;;;;3.50;0.95;;;;;;;27.20;25.72;94928.16;5049490;28;20036;-38
2021/01/25 08:03:05;;;;;;;1.63;0.90;;;;;;;27.22;25.60;94935.88;5051093;28;20135;-42
2021/01/25 08:05:30;;;;;;;5.13;1.10;;;;;;;27.21;25.82;94935.06;5046858;28;20123;-44
2021/01/25 08:07:56;;;;;;;8.40;1.08;;;;;;;27.22;26.12;94941.13;5050825;28;20053;-38
2021/01/25 08:10:22;;;;;;;3.38;1.92;;;;;;;27.20;23.95;94945.72;5051800;28;20550;-38
2021/01/25 08:12:47;;;;;;;3.47;1.40;;;;;;;27.18;23.98;94952.88;5045054;28;20068;-39
2021/01/25 08:15:19;;;;;;;5.97;1.48;;;;;;;27.17;24.16;94954.69;5064045;28;20040;-42
2021/01/25 08:17:48;;;;;;;4.90;1.50;;;;;;;27.15;23.70;94956.63;5068402;28;20275;-39
2021/01/25 08:20:21;;;;;;;3.78;1.60;;;;;;;27.14;24.29;94965.47;5052347;28;20242;-41
2021/01/25 08:23:03;;;;;;;5.32;1.50;;;;;;;27.13;24.36;94963.81;5035109;28;20048;-38
2021/01/25 08:25:29;;;;;;;7.47;1.50;;;;;;;27.13;24.25;94964.66;5051857;28;20032;-42
2021/01/25 08:28:05;;;;;;;3.50;1.33;;;;;;;27.11;23.83;94971.84;5062958;28;20036;-44
2021/01/25 08:30:38;;;;;;;5.65;1.40;;;;;;;27.10;24.45;94975.44;5050616;28;21696;-42
2021/01/25 08:33:05;;;;;;;5.82;1.50;;;;;;;27.10;23.82;94980.69;5050306;28;20036;-39
2021/01/25 08:35:33;;;;;;;3.47;1.20;;;;;;;27.09;23.88;94978.19;5049593;28;20068;-43
2021/01/25 08:38:28;;;;;;;3.67;1.65;;;;;;;27.06;24.56;94976.69;5052641;28;20616;-41
2021/01/25 08:40:57;;;;;;;2.40;1.13;;;;;;;27.06;25.37;94978.47;5062609;28;20048;-42
2021/01/25 08:43:30;;;;;;;2.50;0.93;;;;;;;27.08;26.09;94977.34;5054725;28;20133;-36
2021/01/25 08:46:16;;;;;;;2.08;1.02;;;;;;;27.10;25.79;94985.13;5053707;28;20049;-41
2021/01/25 08:48:42;;;;;;;6.53;0.90;;;;;;;27.12;25.99;94986.66;5053036;28;20085;-43
2021/01/25 08:51:16;;;;;;;3.20;1.27;;;;;;;27.13;26.23;94993.59;5053683;28;20049;-41
2021/01/25 08:53:45;;;;;;;2.90;0.98;;;;;;;27.17;26.24;94990.66;5051455;28;20036;-41
2021/01/25 08:56:18;;;;;;;1.88;1.10;;;;;;;27.17;26.20;94996.78;5047679;28;20029;-39
2021/01/25 08:58:43;;;;;;;7.22;1.17;;;;;;;27.17;25.72;95001.19;5050016;28;20548;-39
2021/01/25 09:01:17;;;;;;;2.65;0.70;;;;;;;27.20;25.61;95000.94;5049114;28;20045;-44
2021/01/25 09:03:43;;;;;;;3.45;1.08;;;;;;;27.16;26.03;95003.00;5050070;28;20146;-38
2021/01/25 09:06:09;;;;;;;3.55;1.10;;;;;;;27.20;25.86;95014.06;5043872;28;20044;-38
2021/01/25 09:08:35;;;;;;;2.53;0.75;;;;;;;27.22;26.17;95023.50;5050875;28;20047;-39
2021/01/25 09:11:00;;;;;;;2.05;0.80;;;;;;;27.23;25.57;95026.97;5048078;28;20075;-38
2021/01/25 09:13:26;;;;;;;1.77;1.00;;;;;;;27.24;26.17;95023.38;5046990;28;20053;-38
2021/01/25 09:15:51;;;;;;;4.43;1.20;;;;;;;27.26;25.90;95031.94;5048394;28;20040;-41
2021/01/25 09:18:17;;;;;;;1.17;0.60;;;;;;;27.27;26.30;95033.63;5050398;28;20040;-38
2021/01/25 09:20:43;;;;;;;2.30;0.80;;;;;;;27.27;26.09;95033.63;5045406;28;20044;-40
2021/01/25 09:23:08;;;;;;;3.30;0.90;;;;;;;27.30;26.21;95040.41;5049035;28;21255;-39
2021/01/25 09:25:34;;;;;;;1.38;0.75;;;;;;;27.29;26.21;95039.56;5048132;28;20064;-44
2021/01/25 09:28:00;;;;;;;3.22;0.80;;;;;;;27.30;25.84;95043.84;5051835;28;20033;-42
2021/01/25 09:30:28;;;;;;;4.45;1.45;;;;;;;27.31;23.16;95050.78;5049556;28;20178;-39
2021/01/25 09:32:54;;;;;;;11.57;2.85;;;;;;;27.11;18.35;95055.97;5050372;28;20057;-41
2021/01/25 09:35:22;;;;;;;13.27;3.20;;;;;;;26.78;17.01;95050.00;5046489;28;20036;-43
2021/01/25 09:37:47;;;;;;;24.67;3.80;;;;;;;26.39;16.64;95060.25;5054760;28;20037;-42
2021/01/25 09:40:14;;;;;;;22.30;7.63;;;;;;;26.02;16.93;95064.94;5052894;28;20032;-39
2021/01/25 09:42:40;;;;;;;11.73;5.65;;;;;;;25.77;17.97;95074.78;5052307;28;20028;-41
2021/01/25 09:45:07;;;;;;;11.18;4.57;;;;;;;25.68;19.93;95083.38;5048214;28;20124;-40
2021/01/25 09:47:33;;;;;;;8.65;4.35;;;;;;;25.63;20.60;95077.69;5051078;28;20626;-41
2021/01/25 09:49:58;;;;;;;7.32;3.90;;;;;;;25.66;21.77;95082.69;5049606;28;20070;-43
2021/01/25 09:52:25;;;;;;;7.13;3.90;;;;;;;25.73;22.08;95085.66;5051346;28;20131;-38
2021/01/25 09:54:51;;;;;;;8.55;3.47;;;;;;;25.78;22.56;95092.19;5047890;28;20040;-39
2021/01/25 09:57:17;;;;;;;6.00;3.72;;;;;;;25.86;23.11;95096.00;5047172;28;20555;-40
2021/01/25 09:59:42;;;;;;;8.52;3.42;;;;;;;25.93;23.30;95097.16;5046348;28;20127;-37
2021/01/25 10:02:08;;;;;;;7.93;3.38;;;;;;;26.01;23.43;95107.84;5042067;28;20037;-39
2021/01/25 10:04:33;;;;;;;9.50;3.20;;;;;;;26.08;22.95;95100.31;5041755;28;20057;-41
2021/01/25 10:07:00;;;;;;;8.55;3.15;;;;;;;26.15;23.54;95106.75;5047420;28;20135;-42
2021/01/25 10:09:25;;;;;;;4.32;2.80;;;;;;;26.21;23.03;95110.69;5051641;28;20076;-39
2021/01/25 10:11:52;;;;;;;9.05;3.30;;;;;;;26.27;23.91;95110.19;5053718;28;20029;-38
2021/01/25 10:14:18;;;;;;;6.32;3.22;;;;;;;26.31;23.90;95116.88;5051198;28;20079;-37
2021/01/25 10:16:45;;;;;;;10.18;3.42;;;;;;;26.39;23.82;95115.41;5047661;28;20072;-41
2021/01/25 10:19:11;;;;;;;8.38;3.40;;;;;;;26.43;24.28;95127.34;5050983;28;20115;-41
2021/01/25 10:21:36;;;;;;;6.22;3.53;;;;;;;26.45;23.35;95122.78;5052754;28;20123;-41
2021/01/25 10:24:02;;;;;;;14.15;4.20;;;;;;;26.45;23.40;95125.41;5060789;28;20375;-40
2021/01/25 10:26:28;;;;;;;14.55;4.65;;;;;;;26.45;23.77;95126.25;5059186;28;20025;-39
2021/01/25 10:28:54;;;;;;;11.10;4.05;;;;;;;26.47;24.21;95132.19;5050953;28;20048;-41
2021/01/25 10:31:20;;;;;;;11.55;4.10;;;;;;;26.50;23.78;95141.59;5048033;28;20511;-40
2021/01/25 10:33:46;;;;;;;14.63;4.32;;;;;;;26.52;24.34;95139.72;5055850;28;20105;-40
2021/01/25 10:36:12;;;;;;;8.98;3.88;;;;;;;26.54;23.63;95143.03;5049287;28;20807;-39
2021/01/25 10:38:38;;;;;;;15.88;3.50;;;;;;;26.48;24.67;95146.97;5047771;28;20043;-39
2021/01/25 10:41:05;;;;;;;6.97;3.15;;;;;;;26.38;25.51;95145.25;5046310;28;20031;-40
2021/01/25 10:43:31;;;;;;;11.68;3.72;;;;;;;26.31;25.53;95158.88;5053712;28;20112;-39
2021/01/25 10:45:57;;;;;;;8.63;3.13;;;;;;;26.26;25.21;95152.31;5064195;28;20101;-36
2021/01/25 10:48:22;;;;;;;5.60;2.70;;;;;;;26.28;25.12;95159.13;5055711;28;20049;-36
2021/01/25 10:50:48;;;;;;;6.65;2.80;;;;;;;26.34;25.33;95156.00;5053248;28;20128;-42
2021/01/25 10:53:13;;;;;;;9.35;3.28;;;;;;;26.46;23.93;95158.56;5047695;28;20048;-43
2021/01/25 10:55:39;;;;;;;16.05;3.33;;;;;;;26.59;24.21;95161.88;5056168;28;20037;-38
2021/01/25 10:58:04;;;;;;;6.45;3.03;;;;;;;26.72;25.39;95160.84;5069047;28;20623;-40
2021/01/25 11:00:30;;;;;;;7.07;3.00;;;;;;;26.88;24.72;95165.66;5050211;28;20483;-40
2021/01/25 11:02:56;;;;;;;6.65;2.80;;;;;;;27.01;25.03;95170.78;5071621;28;20036;-39
2021/01/25 11:05:23;;;;;;;6.82;2.92;;;;;;;27.15;24.69;95171.41;5056259;28;20516;-40
2021/01/25 11:07:49;;;;;;;6.75;2.67;;;;;;;27.28;24.69;95169.41;5055392;28;20124;-38
2021/01/25 11:10:19;;;;;;;5.32;2.78;;;;;;;27.40;24.49;95167.53;5055462;28;20045;-38
2021/01/25 11:12:44;;;;;;;3.58;2.40;;;;;;;27.52;24.59;95168.25;5054822;28;20067;-37
2021/01/25 11:15:10;;;;;;;6.55;2.50;;;;;;;27.60;24.37;95168.44;5059205;28;20109;-40
2021/01/25 11:17:36;;;;;;;8.77;2.42;;;;;;;27.70;24.67;95170.31;5059384;28;20628;-43
2021/01/25 11:20:03;;;;;;;4.63;2.25;;;;;;;27.78;24.55;95175.75;5059069;28;20039;-39
2021/01/25 11:22:29;;;;;;;6.70;2.67;;;;;;;27.88;24.43;95168.69;5055867;28;20056;-38
2021/01/25 11:24:54;;;;;;;5.18;2.72;;;;;;;27.98;24.12;95181.03;5055791;28;20784;-42
2021/01/25 11:27:20;;;;;;;4.72;2.20;;;;;;;28.06;24.14;95175.94;5048339;28;20501;-42
2021/01/25 11:29:45;;;;;;;5.10;2.35;;;;;;;28.12;24.18;95172.78;5050355;28;20036;-35